Time;durP1;ratioP1;P1;durP2;ratioP2;P2;SDS_P1;SDS_P2;PMS_P1;PMS_P2;Temp;Humidity;BMP_temperature;BMP_pressure;BME280_temperature;BME280_humidity;BME280_pressure;Samples;Min_cycle;Max_cycle;Signal;HPM_P1;HPM_P2
2022/06/01 00:01:30;;;;;;;3.07;2.77;;;23.20;41.80;;;;;;4980374;28;20446;-43
2022/06/01 00:03:55;;;;;;;4.47;2.73;;;23.20;42.10;;;;;;4981787;28;20857;-45
2022/06/01 00:06:21;;;;;;;2.57;2.37;;;23.10;42.80;;;;;;4978711;28;20258;-43
2022/06/01 00:08:47;;;;;;;2.70;2.50;;;23.10;42.40;;;;;;4992368;28;20202;-44
2022/06/01 00:11:13;;;;;;;2.80;2.60;;;23.00;42.40;;;;;;4982553;28;22906;-43
2022/06/01 00:13:40;;;;;;;3.07;2.87;;;23.00;42.60;;;;;;4988030;28;20202;-43
2022/06/01 00:16:07;;;;;;;3.00;2.70;;;22.90;42.70;;;;;;4980190;28;20532;-43
2022/06/01 00:18:34;;;;;;;3.40;3.20;;;22.90;42.70;;;;;;4982503;28;20473;-43
2022/06/01 00:20:59;;;;;;;4.20;2.83;;;22.80;42.80;;;;;;4985353;28;20496;-43
2022/06/01 00:23:25;;;;;;;3.00;2.70;;;22.80;43.20;;;;;;4986359;28;20472;-43
2022/06/01 00:25:51;;;;;;;2.80;2.60;;;22.50;43.80;;;;;;4984349;28;20210;-42
2022/06/01 00:28:16;;;;;;;3.30;2.87;;;22.40;44.00;;;;;;4981727;28;20201;-43
2022/06/01 00:30:42;;;;;;;7.30;2.63;;;22.40;44.00;;;;;;4984935;28;20894;-43
2022/06/01 00:33:08;;;;;;;3.77;2.70;;;22.40;43.90;;;;;;4979323;28;20191;-43
2022/06/01 00:35:33;;;;;;;3.23;2.80;;;22.50;43.90;;;;;;4981159;28;20230;-43
2022/06/01 00:37:59;;;;;;;2.80;2.60;;;22.50;43.80;;;;;;4980009;28;20628;-43
2022/06/01 00:40:27;;;;;;;8.37;3.03;;;22.40;43.60;;;;;;4982922;28;20205;-42
2022/06/01 00:42:57;;;;;;;3.63;2.70;;;22.40;43.80;;;;;;4980186;28;20194;-43
2022/06/01 00:45:25;;;;;;;2.80;2.60;;;22.40;43.80;;;;;;4981083;28;20481;-43
2022/06/01 00:47:51;;;;;;;3.60;3.10;;;22.40;43.80;;;;;;4980504;28;20454;-42
2022/06/01 00:50:28;;;;;;;2.53;2.33;;;22.30;43.90;;;;;;4985153;28;20447;-46
2022/06/01 00:53:01;;;;;;;3.37;3.10;;;22.30;44.00;;;;;;4986741;28;20442;-42
2022/06/01 00:55:32;;;;;;;3.30;3.00;;;22.40;43.90;;;;;;4980468;28;20569;-42
2022/06/01 00:58:03;;;;;;;3.47;3.17;;;22.30;44.10;;;;;;4984452;28;20486;-42
2022/06/01 01:00:32;;;;;;;2.83;2.63;;;22.30;44.10;;;;;;4978573;28;20461;-43
2022/06/01 01:03:02;;;;;;;3.67;3.17;;;22.30;44.20;;;;;;4984422;28;21015;-42
2022/06/01 01:05:29;;;;;;;3.00;2.80;;;22.20;44.20;;;;;;4982192;28;20453;-42
2022/06/01 01:07:57;;;;;;;3.00;2.70;;;22.10;44.70;;;;;;4980434;28;20536;-43
2022/06/01 01:10:23;;;;;;;3.50;3.20;;;22.00;44.60;;;;;;4981535;28;20445;-44
2022/06/01 01:12:59;;;;;;;3.00;2.80;;;21.90;45.00;;;;;;4984084;28;20954;-42
2022/06/01 01:15:54;;;;;;;3.83;3.43;;;21.70;45.30;;;;;;4988631;28;20327;-43
2022/06/01 01:18:28;;;;;;;4.07;3.30;;;21.80;45.00;;;;;;4983367;28;20544;-42
2022/06/01 01:21:16;;;;;;;3.20;3.00;;;21.70;45.30;;;;;;4985278;28;20477;-42
2022/06/01 01:24:11;;;;;;;3.70;3.40;;;21.50;45.70;;;;;;4983733;28;20461;-42
2022/06/01 01:26:37;;;;;;;3.20;2.90;;;21.30;46.00;;;;;;4984459;28;20465;-42
2022/06/01 01:29:09;;;;;;;4.20;3.80;;;21.10;46.50;;;;;;4986954;28;20867;-42
2022/06/01 01:31:36;;;;;;;4.93;3.20;;;21.00;46.70;;;;;;4988846;28;20278;-42
2022/06/01 01:34:02;;;;;;;5.30;3.40;;;20.80;46.90;;;;;;4990150;28;20437;-42
2022/06/01 01:36:41;;;;;;;3.50;3.00;;;20.70;47.30;;;;;;4984500;28;20488;-42
2022/06/01 01:39:13;;;;;;;5.67;3.50;;;20.60;47.60;;;;;;4980633;28;20524;-42
2022/06/01 01:41:44;;;;;;;4.17;3.87;;;20.40;47.70;;;;;;4986508;28;20445;-42
2022/06/01 01:44:17;;;;;;;4.17;3.37;;;20.20;48.30;;;;;;4991413;28;20460;-42
2022/06/01 01:46:47;;;;;;;6.47;3.40;;;20.20;48.20;;;;;;4984785;28;20454;-42
2022/06/01 01:49:13;;;;;;;3.50;3.03;;;20.20;48.20;;;;;;4984019;28;20444;-42
2022/06/01 01:51:39;;;;;;;3.53;3.20;;;20.20;48.40;;;;;;4984791;28;21283;-43
2022/06/01 01:54:23;;;;;;;4.43;3.43;;;20.10;48.70;;;;;;4983540;28;20493;-42
2022/06/01 01:57:11;;;;;;;4.70;3.77;;;20.10;48.70;;;;;;4983979;28;20225;-42
2022/06/01 02:00:09;;;;;;;3.97;3.67;;;20.10;48.60;;;;;;4988980;28;20453;-42
2022/06/01 02:03:04;;;;;;;3.10;2.90;;;20.10;48.50;;;;;;4981728;28;20944;-42
2022/06/01 02:08:32;;;;;;;3.03;2.83;;;19.90;48.80;;;;;;4982119;28;20985;-42
2022/06/01 02:14:38;;;;;;;3.30;3.00;;;19.90;48.90;;;;;;4984333;28;21100;-42
2022/06/01 02:17:05;;;;;;;3.30;3.00;;;19.90;48.70;;;;;;4989004;28;20457;-42
2022/06/01 02:19:36;;;;;;;3.53;3.13;;;19.90;48.70;;;;;;4987743;28;20462;-41
2022/06/01 02:22:02;;;;;;;3.90;2.90;;;19.80;48.80;;;;;;4999839;28;20484;-42
2022/06/01 02:24:29;;;;;;;3.50;3.20;;;19.80;49.00;;;;;;4983990;28;20478;-42
2022/06/01 02:26:56;;;;;;;3.43;2.97;;;19.60;49.30;;;;;;4983886;28;20876;-42
2022/06/01 02:29:35;;;;;;;5.03;2.97;;;19.50;49.90;;;;;;4985036;28;20835;-42
2022/06/01 02:32:03;;;;;;;3.33;3.00;;;19.50;50.10;;;;;;4988367;28;20596;-43
2022/06/01 02:34:30;;;;;;;4.13;3.80;;;19.50;50.00;;;;;;4984258;28;20478;-42
2022/06/01 02:36:58;;;;;;;4.23;3.60;;;19.40;50.50;;;;;;4982338;28;20498;-42
2022/06/01 02:39:25;;;;;;;4.10;3.70;;;19.40;50.40;;;;;;4983268;28;20458;-42
2022/06/01 02:44:35;;;;;;;4.80;3.60;;;19.20;50.70;;;;;;4981761;28;20534;-42
2022/06/01 02:47:00;;;;;;;3.73;3.43;;;19.10;51.00;;;;;;4982955;28;20825;-42
2022/06/01 02:49:26;;;;;;;4.07;3.33;;;19.10;51.20;;;;;;4983640;28;20202;-42
2022/06/01 02:51:52;;;;;;;3.97;3.67;;;19.10;51.40;;;;;;4985936;28;20194;-42
2022/06/01 02:54:17;;;;;;;4.13;3.30;;;19.10;51.40;;;;;;4986271;28;20246;-42
2022/06/01 02:56:43;;;;;;;6.27;3.63;;;19.20;51.00;;;;;;4991307;28;20608;-41
2022/06/01 02:59:09;;;;;;;3.60;3.30;;;19.20;51.10;;;;;;4985814;28;20194;-43
2022/06/01 03:01:36;;;;;;;4.43;3.73;;;19.20;51.30;;;;;;4988288;28;20207;-42
2022/06/01 03:04:02;;;;;;;7.20;3.20;;;19.30;51.00;;;;;;4985838;28;20336;-42
2022/06/01 03:06:28;;;;;;;3.23;3.03;;;19.40;50.50;;;;;;4986469;28;20797;-42
2022/06/01 03:08:53;;;;;;;3.30;3.07;;;19.50;50.50;;;;;;4986943;28;20496;-42
2022/06/01 03:11:19;;;;;;;4.13;3.33;;;19.50;50.50;;;;;;4988544;28;20191;-42
2022/06/01 03:13:45;;;;;;;4.10;3.40;;;19.60;50.20;;;;;;4985981;28;20201;-42
2022/06/01 03:16:10;;;;;;;4.90;3.30;;;19.50;50.10;;;;;;4984098;28;20241;-44
2022/06/01 03:18:36;;;;;;;3.67;2.60;;;19.50;50.00;;;;;;4983591;28;20857;-42
2022/06/01 03:21:02;;;;;;;3.07;2.77;;;19.60;49.90;;;;;;4981880;28;20191;-42
2022/06/01 03:23:27;;;;;;;3.53;3.10;;;19.60;49.80;;;;;;4982756;28;20201;-42
2022/06/01 03:25:53;;;;;;;4.57;3.23;;;19.60;49.60;;;;;;4985646;28;20208;-42
2022/06/01 03:28:19;;;;;;;3.50;2.80;;;19.70;49.40;;;;;;4981836;28;20325;-42
2022/06/01 03:30:45;;;;;;;3.13;2.70;;;19.70;49.40;;;;;;4984075;28;20233;-42
2022/06/01 03:33:13;;;;;;;3.83;3.30;;;19.70;49.20;;;;;;4981956;28;20199;-42
2022/06/01 03:35:40;;;;;;;3.60;3.30;;;19.70;49.50;;;;;;4988376;28;20546;-42
2022/06/01 03:38:06;;;;;;;3.13;2.83;;;19.70;49.30;;;;;;4981820;28;20450;-42
2022/06/01 03:40:33;;;;;;;3.27;2.97;;;19.70;49.30;;;;;;4982990;28;20791;-43
2022/06/01 03:42:59;;;;;;;3.03;2.70;;;19.80;49.30;;;;;;4983846;28;20538;-42
2022/06/01 03:48:09;;;;;;;5.03;2.90;;;19.80;49.40;;;;;;4985239;28;21039;-42
2022/06/01 03:50:36;;;;;;;3.50;3.20;;;19.80;49.20;;;;;;4983111;28;20520;-42
2022/06/01 03:53:02;;;;;;;3.80;3.50;;;19.80;49.10;;;;;;4988660;28;20445;-43
2022/06/01 03:55:28;;;;;;;4.57;3.40;;;19.80;48.70;;;;;;4981761;28;20517;-42
2022/06/01 03:57:55;;;;;;;3.70;3.40;;;19.80;48.80;;;;;;4982408;28;20515;-42
2022/06/01 04:00:23;;;;;;;4.50;3.40;;;19.80;48.90;;;;;;5000276;28;20574;-43
2022/06/01 04:02:50;;;;;;;2.90;2.70;;;19.80;49.00;;;;;;4985079;28;20453;-42
2022/06/01 04:05:16;;;;;;;4.13;3.30;;;19.80;49.10;;;;;;4981618;28;20540;-42
2022/06/01 04:07:42;;;;;;;4.30;3.50;;;19.80;49.20;;;;;;4986318;28;20437;-42
2022/06/01 04:10:08;;;;;;;3.60;3.30;;;19.70;49.10;;;;;;4982418;28;20980;-42
2022/06/01 04:12:34;;;;;;;3.83;3.17;;;19.80;49.40;;;;;;4982897;28;20190;-43
2022/06/01 04:15:00;;;;;;;4.90;3.20;;;19.80;49.50;;;;;;4983613;28;20816;-43
2022/06/01 04:17:26;;;;;;;5.27;3.60;;;19.80;49.30;;;;;;4984839;28;20461;-42
2022/06/01 04:19:51;;;;;;;3.37;3.07;;;19.80;49.30;;;;;;4982022;28;20599;-42
2022/06/01 04:22:19;;;;;;;5.33;3.40;;;19.90;49.30;;;;;;4987710;28;20202;-42
2022/06/01 04:24:45;;;;;;;3.90;3.50;;;19.90;49.50;;;;;;4981994;28;20273;-43
2022/06/01 04:27:10;;;;;;;4.00;3.70;;;19.90;49.40;;;;;;4986868;28;20533;-44
2022/06/01 04:29:36;;;;;;;4.77;4.00;;;19.90;49.30;;;;;;4983804;28;20206;-42
2022/06/01 04:32:07;;;;;;;3.87;3.57;;;19.90;49.40;;;;;;4985468;28;20198;-42
2022/06/01 04:34:33;;;;;;;3.63;3.33;;;19.90;49.40;;;;;;4984004;28;20222;-42
2022/06/01 04:36:59;;;;;;;3.07;2.87;;;19.90;49.50;;;;;;4988057;28;20497;-42
2022/06/01 04:39:24;;;;;;;3.80;3.50;;;19.90;49.60;;;;;;4984718;28;20449;-42
2022/06/01 04:41:51;;;;;;;3.77;3.47;;;19.80;49.80;;;;;;4980300;28;20534;-42
2022/06/01 04:44:17;;;;;;;6.23;3.47;;;19.80;49.90;;;;;;4982333;28;20202;-42
2022/06/01 04:46:43;;;;;;;3.43;3.13;;;19.80;50.10;;;;;;4979564;28;20945;-42
2022/06/01 04:49:08;;;;;;;3.97;3.17;;;19.80;50.30;;;;;;4983114;28;20459;-42
2022/06/01 04:51:38;;;;;;;3.83;3.13;;;19.80;50.30;;;;;;4985440;28;20203;-45
2022/06/01 04:54:06;;;;;;;4.60;3.40;;;19.80;50.40;;;;;;4987648;28;20186;-42
2022/06/01 04:56:31;;;;;;;3.20;3.00;;;19.90;50.40;;;;;;4989814;28;20489;-43
2022/06/01 04:58:57;;;;;;;3.73;3.00;;;19.90;50.60;;;;;;4991912;28;20444;-42
2022/06/01 05:01:23;;;;;;;3.07;2.80;;;19.90;50.50;;;;;;4991722;28;20186;-42
2022/06/01 05:03:48;;;;;;;3.33;2.97;;;19.90;50.80;;;;;;4995577;28;20199;-44
2022/06/01 05:06:14;;;;;;;4.20;3.20;;;19.60;51.50;;;;;;4983598;28;20190;-42
2022/06/01 05:08:39;;;;;;;3.23;3.00;;;19.60;51.60;;;;;;4995539;28;20222;-43
2022/06/01 05:11:05;;;;;;;10.70;3.67;;;19.80;51.60;;;;;;4992168;28;20276;-43
2022/06/01 05:13:31;;;;;;;4.20;3.07;;;19.80;51.40;;;;;;4994430;28;20207;-42
2022/06/01 05:15:59;;;;;;;4.00;3.30;;;19.90;51.30;;;;;;4992269;28;20500;-42
2022/06/01 05:18:25;;;;;;;4.90;3.17;;;20.00;51.10;;;;;;4986849;28;20205;-42
2022/06/01 05:20:53;;;;;;;5.57;3.50;;;20.10;51.00;;;;;;4981098;28;20528;-43
2022/06/01 05:23:18;;;;;;;3.70;2.80;;;20.10;50.80;;;;;;4987129;28;20782;-43
2022/06/01 05:25:46;;;;;;;3.83;3.30;;;20.00;51.30;;;;;;4991591;28;20438;-42
2022/06/01 05:28:12;;;;;;;3.40;3.10;;;19.80;51.70;;;;;;4982892;28;20198;-43
2022/06/01 05:30:38;;;;;;;6.67;2.93;;;19.90;51.80;;;;;;4989355;28;20959;-43
2022/06/01 05:33:04;;;;;;;5.13;3.00;;;19.30;52.60;;;;;;4988096;28;20454;-42
2022/06/01 05:35:30;;;;;;;2.60;2.40;;;19.30;53.00;;;;;;4987319;28;20234;-43
2022/06/01 05:37:56;;;;;;;4.03;3.03;;;19.40;52.70;;;;;;4990164;28;20449;-43
2022/06/01 05:40:22;;;;;;;6.90;3.13;;;19.50;52.90;;;;;;4990965;28;20257;-43
2022/06/01 05:42:47;;;;;;;3.13;2.83;;;19.60;52.50;;;;;;4992550;28;20442;-44
2022/06/01 05:45:13;;;;;;;3.03;2.83;;;19.60;52.20;;;;;;4991798;28;20201;-43
2022/06/01 05:47:39;;;;;;;2.63;2.43;;;19.50;53.00;;;;;;4991718;28;21019;-43
2022/06/01 05:50:06;;;;;;;3.13;2.93;;;19.80;52.60;;;;;;4991768;28;20210;-42
2022/06/01 05:52:31;;;;;;;3.00;2.80;;;19.70;52.20;;;;;;4989487;28;20710;-43
2022/06/01 05:54:57;;;;;;;2.77;2.57;;;20.00;51.90;;;;;;4988834;28;20549;-42
2022/06/01 05:57:23;;;;;;;3.53;3.23;;;20.00;52.10;;;;;;4990374;28;20281;-43
2022/06/01 05:59:48;;;;;;;3.03;2.83;;;20.00;52.10;;;;;;4991064;28;20256;-42
2022/06/01 06:02:14;;;;;;;3.67;3.37;;;20.10;52.30;;;;;;4987860;28;20628;-43
2022/06/01 06:04:39;;;;;;;3.93;3.53;;;20.10;52.40;;;;;;4990516;28;20202;-44
2022/06/01 06:07:05;;;;;;;4.00;3.17;;;20.20;52.80;;;;;;4992111;28;20230;-44
2022/06/01 06:09:31;;;;;;;3.57;3.27;;;20.10;52.50;;;;;;4983123;28;20329;-43
2022/06/01 06:11:56;;;;;;;4.50;2.83;;;20.30;52.10;;;;;;4989248;28;20187;-43
2022/06/01 06:14:22;;;;;;;3.40;3.10;;;20.40;52.20;;;;;;4992863;28;20606;-43
2022/06/01 06:16:48;;;;;;;2.90;2.70;;;20.50;51.50;;;;;;4990656;28;20230;-44
2022/06/01 06:19:15;;;;;;;3.33;3.03;;;20.70;51.40;;;;;;4988054;28;20210;-43
2022/06/01 06:21:41;;;;;;;4.43;2.70;;;21.00;50.60;;;;;;4986001;28;20202;-42
2022/06/01 06:24:10;;;;;;;2.40;2.13;;;21.30;50.00;;;;;;4991351;28;20446;-43
2022/06/01 06:26:38;;;;;;;3.90;2.70;;;21.20;49.40;;;;;;4989447;28;20460;-43
2022/06/01 06:29:07;;;;;;;3.00;2.80;;;21.40;49.30;;;;;;4985795;28;20450;-43
2022/06/01 06:31:32;;;;;;;3.50;2.77;;;21.60;48.90;;;;;;4988524;28;20953;-43
2022/06/01 06:33:58;;;;;;;3.50;3.20;;;21.60;48.90;;;;;;4991617;28;20437;-44
2022/06/01 06:36:24;;;;;;;3.40;2.60;;;21.70;48.60;;;;;;4987067;28;20227;-43
2022/06/01 06:38:50;;;;;;;3.67;2.57;;;21.60;48.40;;;;;;4985255;28;20265;-43
2022/06/01 06:41:16;;;;;;;2.50;2.40;;;21.80;48.40;;;;;;4987961;28;20444;-44
2022/06/01 06:43:42;;;;;;;2.87;2.67;;;21.60;48.70;;;;;;4991932;28;20206;-43
2022/06/01 06:46:11;;;;;;;3.70;2.63;;;21.60;49.10;;;;;;4984612;28;20199;-44
2022/06/01 06:48:37;;;;;;;6.70;2.40;;;21.90;48.80;;;;;;4990188;28;20441;-43
2022/06/01 06:51:03;;;;;;;2.77;2.50;;;22.10;48.00;;;;;;4988259;28;20438;-43
2022/06/01 06:53:29;;;;;;;3.13;2.93;;;21.90;48.40;;;;;;4991684;28;20431;-44
2022/06/01 06:55:55;;;;;;;6.30;2.50;;;22.10;48.10;;;;;;4977885;28;20489;-42
2022/06/01 06:58:21;;;;;;;3.20;2.80;;;22.30;47.10;;;;;;4990272;28;20217;-42
2022/06/01 07:00:47;;;;;;;3.37;3.00;;;22.00;47.50;;;;;;4982150;28;20290;-44
2022/06/01 07:03:13;;;;;;;2.63;2.40;;;22.00;48.20;;;;;;4988589;28;20528;-43
2022/06/01 07:08:25;;;;;;;4.10;2.93;;;21.80;48.30;;;;;;4991876;28;20520;-43
2022/06/01 07:10:51;;;;;;;2.90;2.70;;;21.80;48.80;;;;;;4974678;28;20493;-44
2022/06/01 07:13:16;;;;;;;3.03;2.73;;;21.90;49.00;;;;;;4988678;28;20778;-43
2022/06/01 07:15:42;;;;;;;3.80;2.90;;;22.00;48.70;;;;;;4979604;28;20477;-43
2022/06/01 07:18:08;;;;;;;3.17;2.87;;;22.30;48.70;;;;;;4991912;28;20286;-43
2022/06/01 07:20:34;;;;;;;2.70;2.50;;;22.70;48.00;;;;;;4988615;28;20247;-44
2022/06/01 07:22:59;;;;;;;2.87;2.63;;;22.70;47.40;;;;;;4991627;28;20310;-42
2022/06/01 07:25:27;;;;;;;2.73;2.47;;;22.80;47.50;;;;;;4987436;28;20566;-43
2022/06/01 07:27:54;;;;;;;4.10;3.33;;;23.20;46.70;;;;;;4986109;28;20210;-43
2022/06/01 07:30:20;;;;;;;2.80;2.60;;;23.40;46.50;;;;;;4988810;28;20445;-45
2022/06/01 07:32:48;;;;;;;3.20;2.90;;;23.50;46.00;;;;;;4990930;28;21004;-43
2022/06/01 07:35:16;;;;;;;6.63;3.50;;;23.70;46.00;;;;;;4989804;28;20697;-43
2022/06/01 07:43:12;;;;;;;2.80;2.60;;;24.50;44.80;;;;;;4974778;28;20520;-43
2022/06/01 07:45:42;;;;;;;2.97;2.77;;;24.70;43.90;;;;;;4979337;28;20446;-43
2022/06/01 07:48:09;;;;;;;2.87;2.67;;;25.00;43.80;;;;;;4982775;28;20455;-43
2022/06/01 07:50:35;;;;;;;2.90;2.70;;;25.30;43.20;;;;;;4984480;28;20485;-43
2022/06/01 07:53:04;;;;;;;3.20;2.43;;;25.40;42.00;;;;;;4982130;28;20486;-43
2022/06/01 07:55:30;;;;;;;2.77;2.57;;;25.20;41.60;;;;;;4985297;28;20502;-43
2022/06/01 07:57:55;;;;;;;3.27;2.50;;;25.30;41.80;;;;;;4990315;28;20452;-43
2022/06/01 08:00:22;;;;;;;3.57;2.87;;;25.60;41.70;;;;;;4988816;28;20253;-44
2022/06/01 08:02:47;;;;;;;3.37;2.43;;;25.80;41.50;;;;;;4985895;28;20690;-43
2022/06/01 08:05:17;;;;;;;10.03;2.60;;;25.70;41.10;;;;;;4984401;28;20457;-44
2022/06/01 08:07:44;;;;;;;3.53;2.50;;;25.60;40.90;;;;;;4985479;28;20245;-43
2022/06/01 08:10:13;;;;;;;2.80;2.50;;;25.80;40.40;;;;;;4989710;28;20474;-43
2022/06/01 08:15:24;;;;;;;3.53;3.00;;;26.10;39.80;;;;;;4986120;28;20480;-43
2022/06/01 08:17:49;;;;;;;2.30;2.10;;;26.10;39.30;;;;;;4984793;28;20442;-43
2022/06/01 08:20:16;;;;;;;2.37;2.20;;;25.90;40.30;;;;;;4989248;28;20461;-43
2022/06/01 08:22:42;;;;;;;3.67;2.63;;;26.00;40.20;;;;;;4977858;28;20219;-43
2022/06/01 08:25:10;;;;;;;2.50;2.30;;;25.90;40.00;;;;;;4987151;28;20432;-43
2022/06/01 08:27:36;;;;;;;2.93;2.07;;;26.00;40.10;;;;;;4980414;28;20819;-43
2022/06/01 08:30:02;;;;;;;3.20;2.57;;;26.10;39.60;;;;;;4983369;28;20450;-43
2022/06/01 08:32:28;;;;;;;2.43;2.10;;;26.30;39.40;;;;;;4986076;28;20198;-44
2022/06/01 08:34:53;;;;;;;4.40;1.57;;;26.50;35.50;;;;;;4990696;28;20800;-45
2022/06/01 08:37:19;;;;;;;1.83;1.60;;;26.60;30.90;;;;;;4985252;28;20206;-43
2022/06/01 08:39:45;;;;;;;4.10;1.60;;;26.70;29.30;;;;;;4977829;28;20194;-43
2022/06/01 08:42:13;;;;;;;1.47;1.37;;;26.70;29.50;;;;;;4989989;28;20210;-43
2022/06/01 08:44:41;;;;;;;2.37;1.80;;;26.80;29.20;;;;;;4989975;28;20206;-43
2022/06/01 08:47:09;;;;;;;1.97;1.80;;;26.80;30.00;;;;;;4987942;28;20489;-46
2022/06/01 08:49:36;;;;;;;2.70;2.00;;;27.10;30.50;;;;;;4986963;28;20446;-46
2022/06/01 08:52:03;;;;;;;3.17;2.30;;;27.00;30.10;;;;;;4985618;28;20445;-43
2022/06/01 08:54:30;;;;;;;3.00;2.10;;;26.90;33.40;;;;;;4983958;28;20512;-44
2022/06/01 08:57:03;;;;;;;3.83;2.00;;;26.80;32.60;;;;;;4984761;28;20536;-43
2022/06/01 08:59:58;;;;;;;3.87;3.10;;;27.10;34.30;;;;;;4986692;28;20489;-43
2022/06/01 09:02:45;;;;;;;3.10;2.80;;;27.40;34.70;;;;;;4985247;28;20548;-44
2022/06/01 09:05:14;;;;;;;1.80;1.70;;;27.70;34.30;;;;;;4985047;28;21268;-44
2022/06/01 09:07:47;;;;;;;1.90;1.73;;;27.50;30.90;;;;;;4987087;28;20484;-44
2022/06/01 09:10:34;;;;;;;2.13;1.90;;;27.20;29.90;;;;;;4987646;28;20450;-44
2022/06/01 09:13:14;;;;;;;3.03;1.90;;;27.20;29.70;;;;;;4986679;28;20960;-44
2022/06/01 09:16:03;;;;;;;2.00;1.80;;;27.30;30.00;;;;;;4986517;28;20584;-44
2022/06/01 09:18:40;;;;;;;2.40;1.93;;;27.30;30.50;;;;;;4989197;28;20473;-44
2022/06/01 09:24:02;;;;;;;2.83;2.63;;;27.20;31.90;;;;;;4988410;28;20484;-44
2022/06/01 09:26:29;;;;;;;2.33;2.20;;;27.40;34.60;;;;;;4989687;28;20430;-44
2022/06/01 09:28:59;;;;;;;7.10;2.37;;;27.40;34.60;;;;;;4988660;28;20206;-43
2022/06/01 09:31:37;;;;;;;2.47;2.27;;;27.50;34.00;;;;;;4988736;28;20500;-43
2022/06/01 09:34:21;;;;;;;2.87;2.67;;;27.60;34.20;;;;;;4984050;28;20860;-44
2022/06/01 09:37:13;;;;;;;2.47;2.37;;;27.70;34.60;;;;;;4985823;28;20493;-43
2022/06/01 09:39:49;;;;;;;2.83;2.40;;;27.80;33.80;;;;;;4983281;28;20449;-44
2022/06/01 09:42:25;;;;;;;5.10;2.60;;;27.90;34.00;;;;;;4989192;28;20508;-45
2022/06/01 09:44:52;;;;;;;4.33;2.83;;;28.00;33.10;;;;;;4991202;28;20461;-44
2022/06/01 09:47:43;;;;;;;2.63;2.37;;;28.00;33.50;;;;;;4988288;28;20438;-44
2022/06/01 09:50:31;;;;;;;5.60;2.67;;;28.20;33.60;;;;;;4986801;28;20584;-43
2022/06/01 09:53:19;;;;;;;3.73;2.43;;;28.40;33.50;;;;;;4986177;28;20532;-44
2022/06/01 09:55:58;;;;;;;2.53;2.20;;;28.40;32.70;;;;;;4989182;28;20493;-43
2022/06/01 10:07:01;;;;;;;2.70;2.50;;;29.40;31.50;;;;;;4989863;28;20511;-43
2022/06/01 10:09:30;;;;;;;3.37;2.77;;;29.70;30.70;;;;;;4980078;28;20430;-43
2022/06/01 10:11:56;;;;;;;2.67;1.97;;;29.70;29.30;;;;;;4986864;28;20704;-43
2022/06/01 10:14:26;;;;;;;3.10;2.37;;;29.20;29.00;;;;;;4986300;28;20442;-43
2022/06/01 10:17:22;;;;;;;2.00;1.90;;;29.20;29.60;;;;;;4988241;28;20512;-43
2022/06/01 10:19:56;;;;;;;1.90;1.80;;;29.20;29.60;;;;;;4988487;28;20466;-43
2022/06/01 10:22:39;;;;;;;4.23;2.37;;;29.40;29.70;;;;;;4985194;28;20457;-43
2022/06/01 10:25:14;;;;;;;2.23;2.13;;;29.50;29.60;;;;;;4983692;28;20446;-44
2022/06/01 10:27:57;;;;;;;4.10;2.17;;;29.50;28.80;;;;;;4985159;28;20469;-43
2022/06/01 10:30:30;;;;;;;4.90;2.30;;;29.60;28.40;;;;;;4978598;28;20443;-44
2022/06/01 10:33:08;;;;;;;2.73;2.00;;;29.80;28.30;;;;;;4985457;28;20945;-43
2022/06/01 10:35:47;;;;;;;2.00;1.90;;;29.80;27.90;;;;;;4980215;28;20477;-43
2022/06/01 10:38:41;;;;;;;3.60;2.10;;;29.70;28.20;;;;;;4991280;28;20493;-44
2022/06/01 10:41:25;;;;;;;2.13;1.77;;;29.60;28.60;;;;;;4982486;28;20459;-43
2022/06/01 10:43:54;;;;;;;2.73;2.03;;;29.50;28.70;;;;;;4991992;28;20480;-45
2022/06/01 10:46:23;;;;;;;2.10;1.90;;;29.50;28.70;;;;;;4986084;28;20441;-43
2022/06/01 10:49:22;;;;;;;3.40;2.10;;;29.60;28.60;;;;;;4988203;28;20580;-44
2022/06/01 10:52:18;;;;;;;3.77;2.90;;;29.80;28.30;;;;;;4979243;28;20551;-45
2022/06/01 10:55:21;;;;;;;4.67;3.83;;;29.90;28.60;;;;;;4969559;28;20501;-45
2022/06/01 10:57:48;;;;;;;3.33;3.03;;;30.00;28.60;;;;;;4982419;28;20953;-44
2022/06/01 11:00:19;;;;;;;4.43;2.93;;;30.10;28.10;;;;;;4980164;28;20453;-45
2022/06/01 11:03:03;;;;;;;3.97;2.40;;;30.10;27.50;;;;;;4989559;28;20525;-44
2022/06/01 11:05:46;;;;;;;7.53;4.10;;;30.00;26.90;;;;;;4989963;28;20540;-47
2022/06/01 11:08:29;;;;;;;4.43;3.70;;;30.10;27.80;;;;;;4987802;28;20449;-44
2022/06/01 11:11:00;;;;;;;3.77;3.27;;;30.20;27.40;;;;;;4981708;28;20454;-44
2022/06/01 11:13:29;;;;;;;7.17;3.17;;;30.20;26.60;;;;;;4989791;28;20442;-44
2022/06/01 11:16:27;;;;;;;4.73;2.67;;;30.30;27.10;;;;;;4982856;28;20564;-44
2022/06/01 11:19:04;;;;;;;3.00;2.37;;;30.40;26.80;;;;;;4981952;28;20455;-44
2022/06/01 11:21:58;;;;;;;2.60;2.40;;;30.40;25.80;;;;;;4989625;28;20452;-44
2022/06/01 11:24:42;;;;;;;4.27;1.67;;;30.60;25.60;;;;;;4988659;28;20452;-44
2022/06/01 11:27:24;;;;;;;1.60;1.50;;;30.50;24.40;;;;;;4984193;28;20446;-45
2022/06/01 11:30:04;;;;;;;2.03;1.93;;;29.90;24.40;;;;;;4987008;28;20477;-45
2022/06/01 11:32:42;;;;;;;3.27;1.53;;;29.60;24.80;;;;;;4983438;28;20559;-44
2022/06/01 11:35:18;;;;;;;1.53;1.40;;;29.40;24.30;;;;;;4985352;28;20449;-44
2022/06/01 11:38:08;;;;;;;1.97;1.77;;;29.30;24.80;;;;;;4989059;28;20501;-45
2022/06/01 11:40:57;;;;;;;1.60;1.50;;;29.40;24.10;;;;;;4988264;28;20508;-44
2022/06/01 11:43:31;;;;;;;3.67;1.87;;;29.60;24.40;;;;;;4990795;28;20481;-45
2022/06/01 11:46:05;;;;;;;3.10;1.60;;;29.30;25.00;;;;;;4982485;28;20450;-45
2022/06/01 11:48:34;;;;;;;3.93;1.70;;;29.30;25.50;;;;;;4986230;28;20445;-44
2022/06/01 11:51:02;;;;;;;1.40;1.30;;;29.20;24.80;;;;;;4984274;28;20803;-44
2022/06/01 11:53:46;;;;;;;1.77;1.67;;;29.30;24.80;;;;;;4987083;28;20536;-46
2022/06/01 11:56:28;;;;;;;2.07;1.50;;;29.50;24.90;;;;;;4981728;28;20498;-44
2022/06/01 11:59:21;;;;;;;1.93;1.37;;;29.70;24.90;;;;;;4984776;28;20597;-44
2022/06/01 12:02:02;;;;;;;1.63;1.53;;;29.90;24.30;;;;;;4988431;28;20454;-45
2022/06/01 12:04:39;;;;;;;3.03;1.60;;;30.20;24.70;;;;;;4988599;28;20532;-48
2022/06/01 12:07:16;;;;;;;2.60;1.47;;;30.60;24.20;;;;;;4986566;28;20446;-45
2022/06/01 12:09:59;;;;;;;2.90;1.43;;;30.80;23.30;;;;;;4981458;28;20457;-44
2022/06/01 12:12:46;;;;;;;1.93;1.43;;;30.70;22.80;;;;;;4986036;28;20438;-44
2022/06/01 12:15:15;;;;;;;1.63;1.23;;;30.50;23.20;;;;;;4984130;28;20445;-46
2022/06/01 12:18:03;;;;;;;1.67;1.50;;;30.70;23.40;;;;;;4986554;28;20450;-44
2022/06/01 12:20:31;;;;;;;1.50;1.40;;;30.60;23.50;;;;;;4990052;28;20449;-46
2022/06/01 12:28:51;;;;;;;1.50;1.30;;;29.90;23.20;;;;;;4988188;28;20460;-43
2022/06/01 12:31:25;;;;;;;1.50;1.40;;;30.00;22.70;;;;;;4981742;28;20549;-46
2022/06/01 12:34:02;;;;;;;2.60;1.60;;;30.10;23.30;;;;;;4988425;28;20571;-43
2022/06/01 12:36:45;;;;;;;2.13;1.40;;;30.10;23.50;;;;;;4985852;28;20489;-43
2022/06/01 12:39:27;;;;;;;1.67;1.40;;;30.10;23.20;;;;;;4987671;28;20463;-43
2022/06/01 12:41:59;;;;;;;2.17;1.80;;;30.10;23.30;;;;;;4985413;28;20988;-43
2022/06/01 12:44:25;;;;;;;1.90;1.43;;;29.90;24.50;;;;;;4984997;28;20442;-43
2022/06/01 12:46:51;;;;;;;2.00;1.77;;;29.60;24.50;;;;;;4984151;28;20471;-47
2022/06/01 12:49:28;;;;;;;1.70;1.60;;;29.20;24.70;;;;;;4999893;28;20538;-43
2022/06/01 12:51:56;;;;;;;2.60;1.90;;;29.50;25.30;;;;;;4985749;28;20481;-46
2022/06/01 12:54:31;;;;;;;1.47;1.37;;;29.70;25.30;;;;;;4980133;28;20474;-43
2022/06/01 12:56:57;;;;;;;1.70;1.60;;;29.80;25.40;;;;;;4982283;28;20547;-47
2022/06/01 12:59:23;;;;;;;2.03;1.83;;;29.60;25.00;;;;;;4980976;28;20464;-46
2022/06/01 13:01:56;;;;;;;2.13;1.70;;;29.70;24.70;;;;;;4982210;28;20454;-45
2022/06/01 13:04:25;;;;;;;1.90;1.80;;;29.90;24.30;;;;;;4984872;28;20266;-47
2022/06/01 13:06:51;;;;;;;2.20;1.80;;;29.90;25.40;;;;;;4985642;28;20947;-46
2022/06/01 13:09:24;;;;;;;3.73;1.87;;;30.00;26.10;;;;;;4982640;28;20545;-45
2022/06/01 13:12:17;;;;;;;2.27;1.70;;;30.10;26.40;;;;;;4989949;28;20206;-44
2022/06/01 13:14:45;;;;;;;1.70;1.60;;;30.10;26.50;;;;;;4990206;28;20496;-43
2022/06/01 13:17:16;;;;;;;2.43;1.97;;;30.10;25.80;;;;;;4989464;28;20532;-43
2022/06/01 13:19:43;;;;;;;4.33;1.80;;;30.20;26.30;;;;;;4989607;28;20438;-43
2022/06/01 13:22:19;;;;;;;2.20;1.93;;;30.20;25.90;;;;;;4987015;28;20521;-42
2022/06/01 13:25:03;;;;;;;2.30;1.97;;;30.00;25.90;;;;;;4991048;28;20842;-42
2022/06/01 13:27:29;;;;;;;1.80;1.70;;;30.00;26.40;;;;;;4990961;28;20995;-44
2022/06/01 13:29:59;;;;;;;1.87;1.70;;;30.00;26.00;;;;;;4988695;28;21011;-45
2022/06/01 13:32:43;;;;;;;2.00;1.90;;;30.00;26.10;;;;;;4997301;28;20453;-43
2022/06/01 13:35:52;;;;;;;1.83;1.73;;;30.00;26.60;;;;;;4989601;28;21270;-42
2022/06/01 13:38:20;;;;;;;4.30;2.20;;;30.00;27.10;;;;;;4988318;28;20460;-46
2022/06/01 13:41:00;;;;;;;2.43;2.23;;;29.90;27.20;;;;;;4988122;28;21048;-47
2022/06/01 13:43:26;;;;;;;2.50;2.20;;;29.80;27.80;;;;;;4986903;28;20576;-42
2022/06/01 13:45:59;;;;;;;5.43;1.80;;;29.60;27.20;;;;;;4986819;28;20499;-42
2022/06/01 13:48:27;;;;;;;3.17;2.00;;;29.30;27.30;;;;;;4986159;28;20219;-44